Time;durP1;ratioP1;P1;durP2;ratioP2;P2;SDS_P1;SDS_P2;PMS_P1;PMS_P2;Temp;Humidity;BMP_temperature;BMP_pressure;BME280_temperature;BME280_humidity;BME280_pressure;Samples;Min_cycle;Max_cycle;Signal;HPM_P1;HPM_P2
2022/06/23 00:02:20;;;;;;;2.70;1.30;;;19.40;99.90;;;;;;5047309;28;20452;-84
2022/06/23 00:04:53;;;;;;;5.20;2.03;;;19.40;99.90;;;;;;5035618;28;20524;-83
2022/06/23 00:07:24;;;;;;;5.60;1.90;;;19.30;99.90;;;;;;5037155;28;20531;-83
2022/06/23 00:09:52;;;;;;;3.27;1.40;;;19.20;99.90;;;;;;5037623;28;20549;-80
2022/06/23 00:12:29;;;;;;;6.17;1.67;;;19.30;99.90;;;;;;5037357;28;20520;-82
2022/06/23 00:15:14;;;;;;;3.70;1.57;;;19.30;99.90;;;;;;5036922;28;20453;-83
2022/06/23 00:17:44;;;;;;;3.73;1.40;;;19.30;99.90;;;;;;5037311;28;20587;-81
2022/06/23 00:20:16;;;;;;;3.40;1.50;;;19.30;99.90;;;;;;5037424;28;20474;-81
2022/06/23 00:22:46;;;;;;;3.60;1.73;;;19.30;99.90;;;;;;5036872;28;20908;-82
2022/06/23 00:25:29;;;;;;;3.03;1.70;;;19.20;99.90;;;;;;5037424;28;20523;-82
2022/06/23 00:27:56;;;;;;;5.00;1.70;;;19.30;99.90;;;;;;5036853;28;20476;-83
2022/06/23 00:30:28;;;;;;;2.37;1.20;;;19.20;99.90;;;;;;5036684;28;20515;-82
2022/06/23 00:32:55;;;;;;;4.17;1.80;;;19.30;99.90;;;;;;5036071;28;20475;-81
2022/06/23 00:35:23;;;;;;;5.27;1.60;;;19.30;99.90;;;;;;5038071;28;20480;-80
2022/06/23 00:37:52;;;;;;;3.73;1.50;;;19.30;99.90;;;;;;5036628;28;20548;-83
2022/06/23 00:40:22;;;;;;;3.10;1.63;;;19.30;99.90;;;;;;5036700;28;20476;-83
2022/06/23 00:42:53;;;;;;;4.27;1.70;;;19.30;99.90;;;;;;5036328;28;20539;-82
2022/06/23 00:45:28;;;;;;;2.90;1.67;;;19.30;99.90;;;;;;5025470;28;20535;-80
2022/06/23 00:48:00;;;;;;;2.90;1.53;;;19.30;99.90;;;;;;5047429;28;20991;-83
2022/06/23 00:50:33;;;;;;;4.03;1.30;;;19.40;99.90;;;;;;5039279;28;21081;-81
2022/06/23 00:53:05;;;;;;;3.40;1.27;;;19.40;99.90;;;;;;5037102;28;20941;-80
2022/06/23 00:55:43;;;;;;;2.93;1.40;;;19.40;99.90;;;;;;5036825;28;20546;-81
2022/06/23 00:58:24;;;;;;;3.80;1.37;;;19.40;99.90;;;;;;5036418;28;20574;-82
2022/06/23 01:00:54;;;;;;;3.27;1.50;;;19.30;99.90;;;;;;5035725;28;20476;-81
2022/06/23 01:03:28;;;;;;;3.47;1.90;;;19.40;99.90;;;;;;5035583;28;20464;-81
2022/06/23 01:06:00;;;;;;;2.77;1.57;;;19.40;99.90;;;;;;5035799;28;20449;-82
2022/06/23 01:08:35;;;;;;;3.40;1.50;;;19.30;99.90;;;;;;5035609;28;20479;-81
2022/06/23 01:11:05;;;;;;;9.63;1.60;;;19.30;99.90;;;;;;5035070;28;20527;-81
2022/06/23 01:13:39;;;;;;;3.43;1.80;;;19.30;99.90;;;;;;5029136;28;20976;-82
2022/06/23 01:16:13;;;;;;;4.00;1.60;;;19.30;99.90;;;;;;5026174;28;20470;-81
2022/06/23 01:18:43;;;;;;;5.37;1.63;;;19.30;99.90;;;;;;5035782;28;20595;-80
2022/06/23 01:21:18;;;;;;;3.37;1.57;;;19.30;99.90;;;;;;5034587;28;20456;-80
2022/06/23 01:24:03;;;;;;;3.10;1.53;;;19.20;99.90;;;;;;5034654;28;20506;-80
2022/06/23 01:26:51;;;;;;;7.77;1.83;;;19.20;99.90;;;;;;5034862;28;20460;-81
2022/06/23 01:29:25;;;;;;;2.97;1.50;;;19.20;99.90;;;;;;5035124;28;20489;-81
2022/06/23 01:31:56;;;;;;;4.50;1.70;;;19.20;99.90;;;;;;5035396;28;20498;-81
2022/06/23 01:34:30;;;;;;;3.57;1.83;;;19.10;99.90;;;;;;5035212;28;20931;-82
2022/06/23 01:37:02;;;;;;;5.37;1.60;;;19.10;99.90;;;;;;5034802;28;20452;-80
2022/06/23 01:39:37;;;;;;;3.23;1.63;;;19.00;99.90;;;;;;5035782;28;20922;-80
2022/06/23 01:42:21;;;;;;;2.90;1.90;;;19.00;99.90;;;;;;5016285;28;20456;-81
2022/06/23 01:44:58;;;;;;;3.47;1.70;;;19.00;99.90;;;;;;5035248;28;20470;-80
2022/06/23 01:47:31;;;;;;;4.03;2.00;;;18.90;99.90;;;;;;5035877;28;20443;-80
2022/06/23 01:50:23;;;;;;;5.00;1.77;;;18.80;99.90;;;;;;5035434;28;20559;-81
2022/06/23 01:53:10;;;;;;;3.60;1.67;;;18.80;99.90;;;;;;5035341;28;20450;-81
2022/06/23 01:55:52;;;;;;;4.53;1.70;;;18.80;99.90;;;;;;5035260;28;20486;-81
2022/06/23 01:58:23;;;;;;;3.33;2.00;;;18.80;99.90;;;;;;5036030;28;20468;-81
2022/06/23 02:00:57;;;;;;;3.20;1.60;;;18.80;99.90;;;;;;5035591;28;20551;-80
2022/06/23 02:03:32;;;;;;;5.10;1.80;;;18.80;99.90;;;;;;5035630;28;20547;-82
2022/06/23 02:06:05;;;;;;;5.73;1.70;;;18.80;99.90;;;;;;5035093;28;20534;-81
2022/06/23 02:08:36;;;;;;;3.40;1.70;;;18.80;99.90;;;;;;5038819;28;20516;-81
2022/06/23 02:11:14;;;;;;;4.93;2.07;;;18.70;99.90;;;;;;5039017;28;20516;-80
2022/06/23 02:13:46;;;;;;;3.50;1.70;;;18.70;99.90;;;;;;5039295;28;20450;-80
2022/06/23 02:16:22;;;;;;;3.77;1.70;;;18.70;99.90;;;;;;5038722;28;20898;-79
2022/06/23 02:18:56;;;;;;;4.17;1.90;;;18.70;99.90;;;;;;5038505;28;20518;-82
2022/06/23 02:21:29;;;;;;;3.10;1.50;;;18.60;99.90;;;;;;5019126;28;20529;-80
2022/06/23 02:24:01;;;;;;;3.83;2.80;;;18.60;99.90;;;;;;5019473;28;20472;-82
2022/06/23 02:26:35;;;;;;;3.50;1.70;;;18.60;99.90;;;;;;5039101;28;20541;-80
2022/06/23 02:29:08;;;;;;;5.00;2.03;;;18.50;99.90;;;;;;5038807;28;20476;-83
2022/06/23 02:31:42;;;;;;;2.70;1.60;;;18.50;99.90;;;;;;5039744;28;20870;-80
2022/06/23 02:34:15;;;;;;;4.10;2.07;;;18.40;99.90;;;;;;5037822;28;20462;-80
2022/06/23 02:37:02;;;;;;;4.20;1.70;;;18.40;99.90;;;;;;5039332;28;20550;-82
2022/06/23 02:39:36;;;;;;;9.33;2.20;;;18.30;99.90;;;;;;5031062;28;20559;-82
2022/06/23 02:42:13;;;;;;;4.13;2.10;;;18.30;99.90;;;;;;5039382;28;20537;-82
2022/06/23 02:45:10;;;;;;;5.87;1.87;;;18.30;99.90;;;;;;5038898;28;20493;-81
2022/06/23 02:47:54;;;;;;;3.60;1.70;;;18.20;99.90;;;;;;5041295;28;20462;-80
2022/06/23 02:50:40;;;;;;;3.60;2.03;;;18.20;99.90;;;;;;5050887;28;20483;-81
2022/06/23 02:53:18;;;;;;;4.77;2.17;;;18.20;99.90;;;;;;5049969;28;21007;-80
2022/06/23 02:56:12;;;;;;;4.80;2.20;;;18.10;99.90;;;;;;5040820;28;20482;-82
2022/06/23 02:58:44;;;;;;;3.73;2.07;;;18.10;99.90;;;;;;5038827;28;21078;-83
2022/06/23 03:01:19;;;;;;;7.47;2.07;;;18.10;99.90;;;;;;5039463;28;20450;-82
2022/06/23 03:03:53;;;;;;;3.00;1.70;;;18.10;99.90;;;;;;5038568;28;20442;-81
2022/06/23 03:06:25;;;;;;;3.70;1.80;;;18.00;99.90;;;;;;5038436;28;20550;-84
2022/06/23 03:08:57;;;;;;;4.53;2.30;;;18.00;99.90;;;;;;5039228;28;20518;-82
2022/06/23 03:14:14;;;;;;;5.30;2.90;;;17.90;99.90;;;;;;5037430;28;20444;-81
2022/06/23 03:16:48;;;;;;;4.27;2.90;;;17.90;99.90;;;;;;5038258;28;20924;-82
2022/06/23 03:19:21;;;;;;;5.73;2.40;;;17.90;99.90;;;;;;5037642;28;20571;-81
2022/06/23 03:21:52;;;;;;;6.10;2.33;;;17.80;99.90;;;;;;5027333;28;21004;-81
2022/06/23 03:24:24;;;;;;;4.77;2.47;;;17.80;99.90;;;;;;5036623;28;20557;-82
2022/06/23 03:26:54;;;;;;;4.40;2.13;;;17.80;99.90;;;;;;5038096;28;20461;-82
2022/06/23 03:29:28;;;;;;;3.70;2.30;;;17.80;99.90;;;;;;5036879;28;20476;-82
2022/06/23 03:32:02;;;;;;;3.30;2.07;;;17.80;99.90;;;;;;5037778;28;20451;-80
2022/06/23 03:34:35;;;;;;;5.07;2.47;;;17.70;99.90;;;;;;5037064;28;20522;-83
2022/06/23 03:37:06;;;;;;;4.30;2.23;;;17.70;99.90;;;;;;5038499;28;20484;-81
2022/06/23 03:42:28;;;;;;;3.40;2.03;;;17.70;99.90;;;;;;5036475;28;20470;-80
2022/06/23 03:45:00;;;;;;;4.40;1.93;;;17.70;99.90;;;;;;5037845;28;20491;-81
2022/06/23 03:47:35;;;;;;;3.93;2.40;;;17.70;99.90;;;;;;5037267;28;20485;-81
2022/06/23 03:50:14;;;;;;;3.83;2.23;;;17.60;99.90;;;;;;5036714;28;20562;-82
2022/06/23 03:52:46;;;;;;;4.03;2.30;;;17.60;99.90;;;;;;5036770;28;20534;-82
2022/06/23 03:55:21;;;;;;;4.73;2.70;;;17.60;99.90;;;;;;5037283;28;20924;-82
2022/06/23 03:57:53;;;;;;;4.23;2.60;;;17.60;99.90;;;;;;5038327;28;20462;-83
2022/06/23 04:00:30;;;;;;;6.33;2.70;;;17.60;99.90;;;;;;5043032;28;20489;-82
2022/06/23 04:03:14;;;;;;;3.87;2.60;;;17.60;99.90;;;;;;5039117;28;20471;-82
2022/06/23 04:06:13;;;;;;;4.20;2.50;;;17.60;99.90;;;;;;5025216;28;20455;-82
2022/06/23 04:08:46;;;;;;;3.80;2.13;;;17.70;99.90;;;;;;5038428;28;20995;-82
2022/06/23 04:14:04;;;;;;;5.27;2.70;;;17.70;99.90;;;;;;5038163;28;20451;-83
2022/06/23 04:16:34;;;;;;;4.10;2.50;;;17.80;99.90;;;;;;5038016;28;20454;-82
2022/06/23 04:19:07;;;;;;;5.83;2.80;;;17.90;99.90;;;;;;5037366;28;20537;-82
2022/06/23 04:21:35;;;;;;;4.40;2.40;;;17.90;99.90;;;;;;5040646;28;20459;-83
2022/06/23 04:24:07;;;;;;;4.77;2.37;;;18.00;99.90;;;;;;5041397;28;20458;-83
2022/06/23 04:26:38;;;;;;;6.90;3.10;;;18.00;99.90;;;;;;5022709;28;20466;-81
2022/06/23 04:29:10;;;;;;;5.33;2.50;;;18.10;99.90;;;;;;5039255;28;20503;-83
2022/06/23 04:31:41;;;;;;;7.20;2.90;;;18.10;99.90;;;;;;5040149;28;20580;-81
2022/06/23 04:34:19;;;;;;;4.20;2.60;;;18.20;99.90;;;;;;5042118;28;20487;-82
2022/06/23 04:36:47;;;;;;;2.90;1.97;;;18.20;99.90;;;;;;5038845;28;20979;-80
2022/06/23 04:39:23;;;;;;;4.90;2.30;;;18.30;99.90;;;;;;5074726;22;20565;-80
2022/06/23 04:41:54;;;;;;;5.50;2.80;;;18.30;99.90;;;;;;5080749;28;20825;-84
2022/06/23 04:44:27;;;;;;;4.17;2.60;;;18.30;99.90;;;;;;5083973;28;20485;-81
2022/06/23 04:46:57;;;;;;;4.67;2.73;;;18.40;99.90;;;;;;5085428;28;20513;-82
2022/06/23 04:49:26;;;;;;;6.33;2.40;;;18.50;99.90;;;;;;5086096;28;20985;-82
2022/06/23 04:51:58;;;;;;;4.57;3.00;;;18.50;99.90;;;;;;5084197;28;20489;-81
2022/06/23 04:54:29;;;;;;;4.17;2.40;;;18.50;99.90;;;;;;5086343;28;20451;-81
2022/06/23 04:57:03;;;;;;;6.20;2.20;;;18.60;99.90;;;;;;5086709;28;20791;-82
2022/06/23 04:59:35;;;;;;;4.90;2.57;;;18.60;99.90;;;;;;5078509;28;21054;-81
2022/06/23 05:02:19;;;;;;;4.83;2.80;;;18.70;99.90;;;;;;5084853;28;20985;-80
2022/06/23 05:04:54;;;;;;;4.40;2.57;;;18.80;99.90;;;;;;5077473;28;20449;-81
2022/06/23 05:07:28;;;;;;;4.07;2.70;;;18.90;99.90;;;;;;5078452;28;20961;-82
2022/06/23 05:09:59;;;;;;;5.23;3.27;;;18.90;99.90;;;;;;5089660;28;20496;-82
2022/06/23 05:12:30;;;;;;;4.90;2.20;;;19.00;99.90;;;;;;5090805;28;20434;-79
2022/06/23 05:15:05;;;;;;;6.03;2.70;;;19.00;99.90;;;;;;5084925;28;20457;-82
2022/06/23 05:17:35;;;;;;;6.07;2.80;;;19.00;99.90;;;;;;5092527;28;20466;-82
2022/06/23 05:20:05;;;;;;;5.27;2.93;;;19.20;99.90;;;;;;5094521;28;20494;-80
2022/06/23 05:22:37;;;;;;;3.53;2.33;;;19.30;99.90;;;;;;5095210;28;20446;-80
2022/06/23 05:25:22;;;;;;;4.23;2.80;;;19.40;99.90;;;;;;5094950;28;20435;-80
2022/06/23 05:27:51;;;;;;;5.40;2.60;;;19.40;99.90;;;;;;5092958;28;20442;-80
2022/06/23 05:30:26;;;;;;;4.60;2.60;;;19.50;99.90;;;;;;5094475;28;20462;-82
2022/06/23 05:32:56;;;;;;;5.63;3.13;;;19.50;99.90;;;;;;5077418;28;20461;-82
2022/06/23 05:35:26;;;;;;;5.60;3.10;;;19.60;99.90;;;;;;5095307;28;20455;-83
2022/06/23 05:37:58;;;;;;;3.90;2.40;;;19.70;99.90;;;;;;5094153;28;20462;-81
2022/06/23 05:40:30;;;;;;;5.80;3.20;;;19.80;99.90;;;;;;5097006;28;20462;-82
2022/06/23 05:43:00;;;;;;;3.67;2.47;;;19.80;99.90;;;;;;5099213;28;20518;-81
2022/06/23 05:45:30;;;;;;;7.70;2.80;;;19.90;99.90;;;;;;5090797;28;20481;-83
2022/06/23 05:48:00;;;;;;;3.40;2.30;;;20.00;99.90;;;;;;5100040;28;20442;-82
2022/06/23 05:50:43;;;;;;;5.23;2.60;;;20.10;99.90;;;;;;5084482;28;20563;-81
2022/06/23 05:53:17;;;;;;;4.50;2.40;;;20.20;99.90;;;;;;5089524;28;20467;-80
2022/06/23 05:55:49;;;;;;;8.70;3.10;;;20.20;99.90;;;;;;5097230;28;20486;-80
2022/06/23 05:58:23;;;;;;;5.83;3.17;;;20.20;99.90;;;;;;5096323;28;20435;-80
2022/06/23 06:00:56;;;;;;;6.03;2.97;;;20.30;99.90;;;;;;5098750;28;20453;-80
2022/06/23 06:03:27;;;;;;;5.00;2.93;;;20.40;99.90;;;;;;5096481;28;20509;-80
2022/06/23 06:05:57;;;;;;;5.67;3.00;;;20.50;99.90;;;;;;5096946;28;20443;-78
2022/06/23 06:08:32;;;;;;;6.50;3.03;;;20.60;99.90;;;;;;5091701;28;20432;-81
2022/06/23 06:11:02;;;;;;;7.60;3.53;;;20.70;99.90;;;;;;5092226;28;20449;-81
2022/06/23 06:13:33;;;;;;;12.50;3.57;;;20.70;99.90;;;;;;5093226;28;20440;-81
2022/06/23 06:16:04;;;;;;;7.80;3.53;;;20.80;99.90;;;;;;5094907;28;20453;-80
2022/06/23 06:18:34;;;;;;;11.83;4.40;;;20.80;99.90;;;;;;5093752;28;20463;-80
2022/06/23 06:21:03;;;;;;;6.63;3.03;;;20.90;99.90;;;;;;5088650;28;20440;-81
2022/06/23 06:23:45;;;;;;;12.23;4.10;;;21.00;99.90;;;;;;5084156;28;20447;-81
2022/06/23 06:26:13;;;;;;;7.23;3.13;;;21.10;99.90;;;;;;5099733;28;20762;-79
2022/06/23 06:28:40;;;;;;;7.47;3.50;;;21.20;99.90;;;;;;5089603;28;20479;-80
2022/06/23 06:31:16;;;;;;;4.73;3.37;;;21.30;99.90;;;;;;5088070;28;20436;-80
2022/06/23 06:33:59;;;;;;;9.03;3.23;;;21.40;99.90;;;;;;5087623;28;20431;-79
2022/06/23 06:36:40;;;;;;;7.37;2.93;;;21.50;99.90;;;;;;5088206;28;20420;-81
2022/06/23 06:39:13;;;;;;;7.20;3.60;;;21.60;99.90;;;;;;5093252;28;20486;-80
2022/06/23 06:41:44;;;;;;;3.90;2.23;;;21.70;99.90;;;;;;5091759;28;20423;-80
2022/06/23 06:44:12;;;;;;;5.90;2.70;;;21.80;99.90;;;;;;5099295;28;20419;-81
2022/06/23 06:46:40;;;;;;;4.60;2.50;;;21.90;99.90;;;;;;5080157;28;20447;-79
2022/06/23 06:49:13;;;;;;;5.80;2.80;;;22.00;99.90;;;;;;5097102;28;20467;-81
2022/06/23 06:51:41;;;;;;;6.43;2.90;;;22.00;99.90;;;;;;5085848;28;20504;-79
2022/06/23 06:54:16;;;;;;;6.50;2.63;;;22.10;99.90;;;;;;5088618;28;20443;-80
2022/06/23 06:56:45;;;;;;;7.77;3.20;;;22.20;99.90;;;;;;5093115;28;20434;-80
2022/06/23 06:59:18;;;;;;;6.17;2.90;;;22.40;99.90;;;;;;5090455;28;20484;-82
2022/06/23 07:01:50;;;;;;;4.77;2.30;;;22.50;99.90;;;;;;5087428;28;20423;-82
2022/06/23 07:04:23;;;;;;;6.73;2.60;;;22.60;99.90;;;;;;5087236;28;20454;-82
2022/06/23 07:06:55;;;;;;;8.87;2.47;;;22.60;99.90;;;;;;5084369;28;20432;-82
2022/06/23 07:09:31;;;;;;;6.97;2.80;;;22.80;99.90;;;;;;5089847;28;20455;-83
2022/06/23 07:12:09;;;;;;;6.30;2.60;;;22.90;99.90;;;;;;5097844;28;20454;-82
2022/06/23 07:14:44;;;;;;;3.63;2.37;;;23.00;99.90;;;;;;5087024;28;20460;-83
2022/06/23 07:17:20;;;;;;;6.77;2.80;;;23.20;99.90;;;;;;5088725;28;21073;-80
2022/06/23 07:19:52;;;;;;;4.73;2.57;;;23.20;99.90;;;;;;5093938;28;20478;-83
2022/06/23 07:22:25;;;;;;;7.00;3.23;;;23.30;99.90;;;;;;5083473;28;20457;-80
2022/06/23 07:24:58;;;;;;;6.10;2.57;;;23.50;99.90;;;;;;5077984;28;20412;-84
2022/06/23 07:27:29;;;;;;;5.07;2.47;;;23.60;99.90;;;;;;5087336;28;20450;-82
2022/06/23 07:30:00;;;;;;;6.67;3.07;;;23.70;99.90;;;;;;5084837;28;20471;-82
2022/06/23 07:32:38;;;;;;;4.50;2.33;;;23.80;99.90;;;;;;5084784;28;20443;-81
2022/06/23 07:35:18;;;;;;;6.00;3.50;;;24.00;99.90;;;;;;5085947;28;20478;-83
2022/06/23 07:37:50;;;;;;;6.23;3.03;;;24.10;99.90;;;;;;5087352;28;20435;-84
2022/06/23 07:40:20;;;;;;;4.63;2.50;;;24.30;99.90;;;;;;5087512;28;20860;-83
2022/06/23 07:42:56;;;;;;;5.20;2.73;;;24.40;99.90;;;;;;5091559;28;20744;-82
2022/06/23 07:45:29;;;;;;;5.07;2.57;;;24.50;99.90;;;;;;5091637;28;20481;-82
2022/06/23 07:47:56;;;;;;;6.17;3.07;;;24.70;99.90;;;;;;5089104;28;20443;-82
2022/06/23 07:50:24;;;;;;;6.67;2.80;;;24.80;99.90;;;;;;5084567;28;20495;-82
2022/06/23 07:52:51;;;;;;;7.53;3.20;;;24.90;99.90;;;;;;5084637;28;20519;-82
2022/06/23 07:55:24;;;;;;;5.27;2.70;;;25.00;99.90;;;;;;5084701;28;20457;-83
2022/06/23 07:57:51;;;;;;;4.23;2.87;;;25.20;99.90;;;;;;5089414;28;20550;-81
2022/06/23 08:00:19;;;;;;;4.67;3.20;;;25.40;99.90;;;;;;5076273;28;20511;-82
2022/06/23 08:02:52;;;;;;;5.37;2.80;;;25.60;99.90;;;;;;5083237;28;20467;-81
2022/06/23 08:05:23;;;;;;;6.40;2.70;;;25.80;99.90;;;;;;5085601;28;20450;-82
2022/06/23 08:07:50;;;;;;;6.27;3.83;;;25.90;99.90;;;;;;5081257;28;20448;-82
2022/06/23 08:10:22;;;;;;;8.70;3.63;;;26.00;99.90;;;;;;5080915;28;20474;-83
2022/06/23 08:12:53;;;;;;;3.83;3.10;;;26.10;99.90;;;;;;5069524;28;20475;-81
2022/06/23 08:18:24;;;;;;;4.50;3.00;;;26.30;99.90;;;;;;5076485;28;20442;-82
2022/06/23 08:20:58;;;;;;;4.70;2.50;;;26.50;99.90;;;;;;5083650;28;20490;-81
2022/06/23 08:23:25;;;;;;;6.73;3.20;;;26.70;99.90;;;;;;5076721;28;20449;-79
2022/06/23 08:25:54;;;;;;;8.17;3.13;;;26.90;99.90;;;;;;5090048;28;20527;-82
2022/06/23 08:28:22;;;;;;;5.77;3.27;;;27.10;99.90;;;;;;5089376;28;20481;-81
2022/06/23 08:30:49;;;;;;;5.27;3.27;;;27.30;99.90;;;;;;5089442;28;20448;-81
2022/06/23 08:33:16;;;;;;;4.87;3.30;;;27.50;99.90;;;;;;5089416;28;20443;-81
2022/06/23 08:35:47;;;;;;;5.07;3.30;;;27.60;99.90;;;;;;5090822;28;20439;-82
2022/06/23 08:38:20;;;;;;;4.80;3.27;;;27.80;99.90;;;;;;5089502;28;20451;-80
2022/06/23 08:41:00;;;;;;;7.13;3.47;;;27.80;99.90;;;;;;5089074;28;20490;-80
2022/06/23 08:43:33;;;;;;;9.03;3.40;;;28.10;99.90;;;;;;5089229;28;20442;-82
2022/06/23 08:46:10;;;;;;;5.67;3.80;;;28.30;99.90;;;;;;5089983;28;20447;-81
2022/06/23 08:48:42;;;;;;;4.70;2.90;;;28.50;99.90;;;;;;5088785;28;20461;-80
2022/06/23 08:51:17;;;;;;;5.77;3.73;;;28.80;99.90;;;;;;5089758;28;20454;-82
2022/06/23 08:54:01;;;;;;;5.80;3.33;;;28.90;99.90;;;;;;5088234;28;20454;-80
2022/06/23 08:56:38;;;;;;;5.40;3.27;;;29.00;99.90;;;;;;5070751;28;20452;-81
2022/06/23 08:59:13;;;;;;;5.00;2.60;;;29.40;99.90;;;;;;5079883;28;20473;-82
2022/06/23 09:01:46;;;;;;;8.70;3.60;;;29.60;99.90;;;;;;5097014;28;20458;-83
2022/06/23 09:04:21;;;;;;;6.50;2.87;;;29.70;99.90;;;;;;5086086;28;20436;-82
2022/06/23 09:06:53;;;;;;;3.77;2.87;;;29.80;99.90;;;;;;5083354;28;20447;-80
2022/06/23 09:09:29;;;;;;;4.00;2.57;;;30.10;99.90;;;;;;5078375;28;20474;-82
2022/06/23 09:12:07;;;;;;;4.40;2.57;;;30.30;99.90;;;;;;5081229;28;20487;-83
2022/06/23 09:15:25;;;;;;;4.90;2.53;;;30.60;99.90;;;;;;5081536;28;20504;-80
2022/06/23 09:18:30;;;;;;;4.30;2.37;;;30.90;99.90;;;;;;5062171;28;20467;-81
2022/06/23 09:21:14;;;;;;;4.27;3.13;;;30.90;99.90;;;;;;4966549;29;20512;-80
2022/06/23 09:24:00;;;;;;;3.03;2.40;;;30.90;99.90;;;;;;5066794;28;20451;-81
2022/06/23 09:26:38;;;;;;;5.87;2.40;;;31.20;99.90;;;;;;5085913;28;21027;-81
2022/06/23 09:29:12;;;;;;;9.93;2.67;;;31.30;99.90;;;;;;5088689;28;20467;-80
2022/06/23 09:31:49;;;;;;;4.90;2.93;;;31.20;99.90;;;;;;5084100;28;20483;-81
2022/06/23 09:34:25;;;;;;;7.00;2.77;;;31.40;99.90;;;;;;5068328;28;20478;-81
2022/06/23 09:37:21;;;;;;;4.33;2.83;;;31.40;99.90;;;;;;5082568;28;20957;-81
2022/06/23 09:40:18;;;;;;;5.40;2.80;;;31.70;99.90;;;;;;5087312;28;20463;-82
2022/06/23 09:43:19;;;;;;;4.83;2.90;;;31.90;99.90;;;;;;5087641;28;20443;-80
2022/06/23 09:46:06;;;;;;;8.63;3.30;;;32.00;99.90;;;;;;5087153;28;20458;-81
2022/06/23 09:49:03;;;;;;;3.30;2.53;;;32.10;99.90;;;;;;5084803;28;20451;-82
2022/06/23 09:51:50;;;;;;;5.00;3.00;;;32.40;99.90;;;;;;5085099;28;20455;-82
2022/06/23 09:54:54;;;;;;;3.73;2.50;;;32.50;99.90;;;;;;5083487;28;20451;-82
2022/06/23 09:58:09;;;;;;;4.23;3.07;;;32.70;99.90;;;;;;5066851;28;20454;-81
2022/06/23 10:00:45;;;;;;;5.00;2.83;;;33.00;99.90;;;;;;5042788;28;20515;-81
2022/06/23 10:03:26;;;;;;;4.73;2.73;;;33.00;99.90;;;;;;5042577;28;20551;-81
2022/06/23 10:06:10;;;;;;;3.73;2.60;;;33.40;99.90;;;;;;5065609;28;20470;-82
2022/06/23 10:08:49;;;;;;;4.60;2.43;;;33.60;99.90;;;;;;5081492;28;20477;-82
2022/06/23 10:11:40;;;;;;;3.70;2.20;;;33.50;98.90;;;;;;5079941;28;21017;-81
2022/06/23 10:14:26;;;;;;;5.77;2.53;;;33.70;99.90;;;;;;5082930;28;20459;-82
2022/06/23 10:17:19;;;;;;;3.47;2.60;;;33.90;99.90;;;;;;5083736;28;20467;-84
2022/06/23 10:20:14;;;;;;;3.23;2.40;;;33.90;96.20;;;;;;5084587;28;20510;-81
2022/06/23 10:22:58;;;;;;;2.70;2.37;;;34.10;97.30;;;;;;5075542;28;20454;-83
2022/06/23 10:25:44;;;;;;;3.30;2.43;;;34.30;99.90;;;;;;5083021;28;20458;-82
2022/06/23 10:28:35;;;;;;;5.70;2.30;;;34.20;98.90;;;;;;5084996;28;20515;-82
2022/06/23 10:31:16;;;;;;;3.23;2.17;;;34.20;95.00;;;;;;5088621;28;20448;-82
2022/06/23 10:34:06;;;;;;;6.43;2.50;;;34.30;96.30;;;;;;5087693;28;20511;-83
2022/06/23 10:36:55;;;;;;;5.43;2.87;;;34.30;98.10;;;;;;5087611;28;20481;-82
2022/06/23 10:39:39;;;;;;;7.60;2.83;;;33.90;93.40;;;;;;5089733;28;20513;-83
2022/06/23 10:42:22;;;;;;;5.10;2.80;;;34.40;97.80;;;;;;5088834;28;20471;-82
2022/06/23 10:45:17;;;;;;;5.33;2.50;;;34.20;93.10;;;;;;5090694;28;20474;-83
2022/06/23 10:48:07;;;;;;;3.53;2.70;;;34.60;95.30;;;;;;5086531;28;20455;-82
2022/06/23 10:50:57;;;;;;;2.90;2.10;;;34.80;91.70;;;;;;5131560;22;20528;-80
2022/06/23 10:54:03;;;;;;;4.10;2.80;;;34.50;93.10;;;;;;5050824;28;20465;-78
2022/06/23 10:57:08;;;;;;;3.53;2.30;;;34.80;88.50;;;;;;5049492;28;20453;-82
2022/06/23 10:59:58;;;;;;;2.90;2.17;;;35.00;93.10;;;;;;5019552;28;20456;-82
2022/06/23 11:02:58;;;;;;;3.80;3.00;;;35.30;90.40;;;;;;5029938;28;20507;-80
2022/06/23 11:05:45;;;;;;;4.17;2.10;;;35.50;86.70;;;;;;5026611;28;20476;-80
2022/06/23 11:08:35;;;;;;;3.80;2.40;;;35.50;88.30;;;;;;5025366;28;20839;-79
2022/06/23 11:11:23;;;;;;;6.50;2.50;;;35.60;89.90;;;;;;5020071;28;20489;-81
2022/06/23 11:13:58;;;;;;;3.83;2.70;;;36.00;88.90;;;;;;5026173;28;20445;-77
2022/06/23 11:16:45;;;;;;;3.57;2.50;;;36.20;90.20;;;;;;5029210;28;20488;-78
2022/06/23 11:19:25;;;;;;;5.07;2.70;;;36.00;78.60;;;;;;5015888;28;20886;-79
2022/06/23 11:22:05;;;;;;;5.97;3.00;;;36.40;90.90;;;;;;5026390;28;20513;-80
2022/06/23 11:24:46;;;;;;;5.17;2.60;;;36.60;86.70;;;;;;5023982;28;21007;-77
2022/06/23 11:27:27;;;;;;;4.60;2.57;;;36.70;81.40;;;;;;5024734;28;20496;-77
2022/06/23 11:30:22;;;;;;;6.97;2.80;;;36.70;82.40;;;;;;5021149;28;20458;-77
2022/06/23 11:33:22;;;;;;;4.33;2.27;;;36.80;79.40;;;;;;5011917;28;20468;-81
2022/06/23 11:36:06;;;;;;;4.23;2.87;;;37.00;78.50;;;;;;4974007;28;20539;-81
2022/06/23 11:39:15;;;;;;;5.00;2.50;;;37.00;73.70;;;;;;5021714;28;20818;-78
2022/06/23 11:42:21;;;;;;;4.00;2.43;;;37.00;73.60;;;;;;5023611;28;20494;-80
2022/06/23 11:45:04;;;;;;;5.93;2.70;;;37.10;73.30;;;;;;4995982;28;20524;-78
2022/06/23 11:47:42;;;;;;;3.00;2.13;;;36.90;75.00;;;;;;5024648;28;20461;-78
2022/06/23 11:50:20;;;;;;;4.97;2.63;;;37.10;77.50;;;;;;5023428;28;20481;-78
2022/06/23 11:53:17;;;;;;;4.87;2.60;;;37.10;71.00;;;;;;5018659;28;20461;-78
2022/06/23 11:55:51;;;;;;;6.93;2.67;;;37.40;70.70;;;;;;5020862;28;20457;-78
2022/06/23 11:58:42;;;;;;;5.10;2.90;;;37.90;79.40;;;;;;5019348;28;20522;-82
2022/06/23 12:01:20;;;;;;;4.37;2.57;;;37.60;70.20;;;;;;5002280;28;20562;-79
2022/06/23 12:04:07;;;;;;;3.57;2.80;;;37.60;69.90;;;;;;5016971;28;20964;-80
2022/06/23 12:06:44;;;;;;;7.83;3.60;;;37.40;73.00;;;;;;5022593;28;20453;-81
2022/06/23 12:09:22;;;;;;;4.20;2.40;;;37.70;81.10;;;;;;5022810;28;20533;-83
2022/06/23 12:11:50;;;;;;;3.50;2.30;;;38.10;79.50;;;;;;5016872;28;20467;-80
2022/06/23 12:15:18;;;;;;;5.33;2.30;;;38.30;71.50;;;;;;5005559;28;20458;-79
2022/06/23 12:17:56;;;;;;;4.90;2.60;;;38.60;77.10;;;;;;4993477;28;21183;-79
2022/06/23 12:20:29;;;;;;;6.23;2.53;;;38.80;79.10;;;;;;5003886;28;20918;-78
2022/06/23 12:26:14;;;;;;;4.07;2.97;;;38.60;64.70;;;;;;4886280;29;20487;-80
2022/06/23 12:28:58;;;;;;;4.23;2.63;;;38.70;63.80;;;;;;4921109;29;20545;-78
2022/06/23 12:31:36;;;;;;;4.47;2.70;;;38.80;71.30;;;;;;5004652;28;20501;-79
2022/06/23 12:34:17;;;;;;;3.43;2.50;;;38.70;73.80;;;;;;5025108;28;20457;-78
2022/06/23 12:36:55;;;;;;;3.23;2.40;;;39.00;65.90;;;;;;5025842;28;20462;-81
2022/06/23 12:39:29;;;;;;;4.80;2.47;;;39.00;69.00;;;;;;5013522;28;20429;-79
2022/06/23 12:42:05;;;;;;;4.33;2.47;;;38.80;64.30;;;;;;5005246;28;20741;-79
2022/06/23 12:44:44;;;;;;;3.13;2.30;;;38.60;65.10;;;;;;5014130;28;20485;-80
2022/06/23 12:47:21;;;;;;;5.00;2.57;;;38.50;66.70;;;;;;5020791;28;20489;-78
2022/06/23 12:50:15;;;;;;;4.53;2.50;;;38.40;59.80;;;;;;5016109;28;20932;-81
2022/06/23 12:52:54;;;;;;;5.00;2.70;;;38.50;64.50;;;;;;5011714;28;21021;-81
2022/06/23 12:55:40;;;;;;;4.17;2.30;;;38.60;68.00;;;;;;5012797;28;20467;-78
2022/06/23 12:58:23;;;;;;;4.00;2.40;;;38.90;66.00;;;;;;5030599;28;20486;-82
2022/06/23 13:01:13;;;;;;;3.13;2.33;;;38.90;67.50;;;;;;5029000;28;20501;-77
2022/06/23 13:04:03;;;;;;;4.20;2.30;;;39.00;61.20;;;;;;5024435;28;20984;-78
2022/06/23 13:06:37;;;;;;;3.90;2.40;;;39.40;66.30;;;;;;5020963;28;20446;-82
2022/06/23 13:09:14;;;;;;;3.33;2.37;;;39.40;68.70;;;;;;5026596;28;20453;-80
2022/06/23 13:11:51;;;;;;;3.40;2.30;;;39.60;64.40;;;;;;5027252;28;20458;-81
2022/06/23 13:14:22;;;;;;;3.50;2.73;;;39.60;63.20;;;;;;5021074;28;20456;-84
2022/06/23 13:16:56;;;;;;;3.93;2.43;;;39.60;63.60;;;;;;5028273;28;20440;-82
2022/06/23 13:19:30;;;;;;;9.37;2.83;;;39.70;68.40;;;;;;5023348;28;20453;-82
2022/06/23 13:22:06;;;;;;;3.30;2.30;;;39.60;59.80;;;;;;5026571;28;20520;-81
2022/06/23 13:24:36;;;;;;;5.50;2.30;;;40.00;64.50;;;;;;5023854;28;20484;-83
2022/06/23 13:27:11;;;;;;;4.30;2.27;;;39.70;62.40;;;;;;5024460;28;20457;-81
2022/06/23 13:29:45;;;;;;;4.30;2.53;;;40.30;63.50;;;;;;5017098;28;20454;-83
2022/06/23 13:32:22;;;;;;;4.40;2.47;;;40.20;61.00;;;;;;5020474;28;20469;-81
2022/06/23 13:34:55;;;;;;;4.03;2.60;;;40.70;61.20;;;;;;5008105;28;20505;-81
2022/06/23 13:37:33;;;;;;;4.43;2.93;;;41.10;65.40;;;;;;5024841;28;20820;-81
2022/06/23 13:40:15;;;;;;;3.70;2.63;;;41.00;65.80;;;;;;5024041;28;20455;-82
2022/06/23 13:42:49;;;;;;;4.63;2.50;;;40.90;61.40;;;;;;5024488;28;20493;-82
2022/06/23 13:45:26;;;;;;;3.30;2.13;;;41.20;58.30;;;;;;5024715;28;20465;-82
2022/06/23 13:47:58;;;;;;;3.50;1.90;;;41.50;61.90;;;;;;5024087;28;20441;-81
2022/06/23 13:50:33;;;;;;;5.00;2.50;;;41.90;62.00;;;;;;5021803;28;20450;-80
2022/06/23 13:53:06;;;;;;;3.83;2.40;;;41.00;57.40;;;;;;5023651;28;20464;-81